M I D A S
Marine Information and Data Acquisition System
Tripno 1200 of the Zeeleeuw from 2006-12-18 07:49:54 to 2006-12-18 13:37:40
Back to CruiseResearch ActivitiesStationsMapUnderway DataData graphs

EquipmentUnitsComments
TimeDGPSUTC
LatitudeDGPSDM.mWGS84
LongitudeDGPSDM.mWGS84
SpeedMeteo Stationm/sRelative wind speed
DirectionMeteo StationdegRelative wind direction
TemperatureMeteo Stationdeg CelciusAir temperature
PressureMeteo StationPaAtmospheric pressure
HumidityMeteo Station%Relative humidity
Missing or incorrect values are displayed as -999
Metereological data collected by the RV Zeeleeuw from 2006-12-18 07:00:44 to 2006-12-18 13:42:36
                                                                                    Next 1000 lines
Time Latitude Longitude Speed Direction Temperature Pressure Humidity
2006-12-18 07:50:01 51°13.603 2°56.076 1 42 2.2 102780 100
2006-12-18 07:50:07 51°13.604 2°56.072 1 31 2.2 102780 100
2006-12-18 07:50:13 51°13.605 2°56.067 1.2 41 2.2 102780 100
2006-12-18 07:50:18 51°13.607 2°56.063 1 78 2.2 102780 100
2006-12-18 07:50:23 51°13.608 2°56.058 1.3 41 2.2 102780 100
2006-12-18 07:50:28 51°13.61 2°56.054 1.4 33 2.2 102780 100
2006-12-18 07:50:33 51°13.611 2°56.049 1.3 41 2.2 102780 100
2006-12-18 07:50:38 51°13.613 2°56.043 1.6 32 2.2 102780 100
2006-12-18 07:50:43 51°13.614 2°56.037 1.4 40 2.2 102780 100
2006-12-18 07:50:48 51°13.616 2°56.031 1.2 26 2.2 102780 100
2006-12-18 07:50:54 51°13.619 2°56.024 1.9 41 2.2 102780 100
2006-12-18 07:50:58 51°13.62 2°56.02 1.5 38 2.2 102780 100
2006-12-18 07:51:03 51°13.623 2°56.013 2.1 39 2.2 102780 100
2006-12-18 07:51:08 51°13.625 2°56.007 1.9 40 2.2 102780 100
2006-12-18 07:51:13 51°13.627 2°56 2 35 2.2 102780 100
2006-12-18 07:51:18 51°13.629 2°55.993 1.5 77 2.2 102780 100
2006-12-18 07:51:23 51°13.632 2°55.985 2.1 29 2.2 102780 100
2006-12-18 07:51:28 51°13.634 2°55.977 1.9 25 2.2 102780 100
2006-12-18 07:51:33 51°13.636 2°55.968 2.1 34 2.2 102780 100
2006-12-18 07:51:38 51°13.637 2°55.96 2.5 79 2.2 102780 100
2006-12-18 07:51:43 51°13.638 2°55.953 2.2 36 2.2 102780 100
2006-12-18 07:51:49 51°13.639 2°55.947 1.7 19 2.2 102780 100
2006-12-18 07:51:53 51°13.64 2°55.944 1.2 37 2.2 102780 100
2006-12-18 07:51:58 51°13.64 2°55.943 1 20 2.2 102780 100
2006-12-18 07:52:03 51°13.64 2°55.941 0.8 19 2.2 102780 100
2006-12-18 07:52:08 51°13.641 2°55.939 0.9 30 2.2 102780 100
2006-12-18 07:52:13 51°13.641 2°55.936 1 35 2.2 102780 100
2006-12-18 07:52:17 51°13.642 2°55.934 1.1 28 2.2 102780 100
2006-12-18 07:52:22 51°13.643 2°55.93 1.3 30 2.2 102780 100
2006-12-18 07:52:27 51°13.644 2°55.925 1.6 38 2.2 102780 100
2006-12-18 07:52:32 51°13.646 2°55.92 1.5 42 2.2 102780 100
2006-12-18 07:52:38 51°13.648 2°55.913 2.1 77 2.2 102780 100
2006-12-18 07:52:43 51°13.65 2°55.906 1.9 34 2.2 102780 100
2006-12-18 07:52:48 51°13.653 2°55.9 1.7 42 2.2 102780 100
2006-12-18 07:52:54 51°13.656 2°55.892 2.3 40 2.2 102780 100
2006-12-18 07:52:58 51°13.659 2°55.886 2.1 78 2.2 102780 100
2006-12-18 07:53:03 51°13.662 2°55.879 1.3 34 2.2 102780 100
2006-12-18 07:53:08 51°13.666 2°55.872 1.9 79 2.2 102780 100
2006-12-18 07:53:13 51°13.669 2°55.864 1.9 31 2.2 102780 100
2006-12-18 07:53:18 51°13.673 2°55.856 1.9 80 2.2 102780 100
2006-12-18 07:53:23 51°13.678 2°55.848 2.3 31 2.2 102780 100
2006-12-18 07:53:28 51°13.682 2°55.839 2.4 78 2.2 102780 100
2006-12-18 07:53:33 51°13.686 2°55.831 2.4 44 2.2 102780 100
2006-12-18 07:53:38 51°13.691 2°55.823 2.6 36 2.3 102780 100
2006-12-18 07:53:43 51°13.695 2°55.815 2.1 40 2.3 102780 100
2006-12-18 07:53:48 51°13.699 2°55.807 2.4 40 2.3 102780 100
2006-12-18 07:53:53 51°13.704 2°55.799 2 44 2.3 102780 100
2006-12-18 07:53:58 51°13.708 2°55.791 2 43 2.3 102780 100
2006-12-18 07:54:03 51°13.713 2°55.782 2.1 36 2.3 102780 100
2006-12-18 07:54:08 51°13.718 2°55.774 2.5 80 2.3 102780 100
2006-12-18 07:54:13 51°13.722 2°55.766 2.3 32 2.3 102780 100
2006-12-18 07:54:18 51°13.727 2°55.757 3.2 45 2.3 102790 100
2006-12-18 07:54:23 51°13.732 2°55.748 2.9 36 2.3 102790 100
2006-12-18 07:54:28 51°13.736 2°55.74 2.8 79 2.3 102780 100
2006-12-18 07:54:33 51°13.74 2°55.732 2.6 37 2.3 102780 100
2006-12-18 07:54:38 51°13.744 2°55.724 3 31 2.3 102780 100
2006-12-18 07:54:43 51°13.747 2°55.718 2.8 30 2.3 102780 100
2006-12-18 07:54:48 51°13.75 2°55.712 2.7 29 2.3 102780 100
2006-12-18 07:54:53 51°13.752 2°55.707 2.6 24 2.3 102780 100
2006-12-18 07:54:58 51°13.755 2°55.703 2.6 24 2.4 102780 100
2006-12-18 07:55:02 51°13.755 2°55.7 2.7 23 2.4 102780 100
2006-12-18 07:55:07 51°13.757 2°55.698 2.6 18 2.4 102780 100
2006-12-18 07:55:13 51°13.757 2°55.698 2.7 21 2.4 102780 100
2006-12-18 07:55:18 51°13.758 2°55.698 2.5 17 2.4 102780 100
2006-12-18 07:55:23 51°13.757 2°55.699 2.9 16 2.4 102780 100
2006-12-18 07:55:28 51°13.758 2°55.701 2.5 14 2.4 102780 100
2006-12-18 07:55:33 51°13.758 2°55.704 2.4 15 2.4 102780 100
2006-12-18 07:55:38 51°13.758 2°55.707 2.7 23 2.4 102780 100
2006-12-18 07:55:43 51°13.758 2°55.71 3.1 15 2.4 102780 100
2006-12-18 07:55:47 51°13.758 2°55.711 2.4 29 2.4 102780 100
2006-12-18 07:55:53 51°13.758 2°55.712 3.1 32 2.4 102780 100
2006-12-18 07:55:58 51°13.758 2°55.712 2.7 30 2.4 102780 100
2006-12-18 07:56:02 51°13.758 2°55.712 2.7 37 2.4 102780 100
2006-12-18 07:56:07 51°13.758 2°55.71 2.7 33 2.4 102780 100
2006-12-18 07:56:12 51°13.758 2°55.708 2.6 32 2.5 102780 100
2006-12-18 07:56:17 51°13.757 2°55.705 2.6 40 2.5 102780 100
2006-12-18 07:56:22 51°13.757 2°55.701 2.9 41 2.5 102780 100
2006-12-18 07:56:28 51°13.756 2°55.695 2.8 41 2.5 102780 100
2006-12-18 07:56:33 51°13.755 2°55.69 2.9 38 2.5 102780 100
2006-12-18 07:56:38 51°13.755 2°55.685 2.9 44 2.5 102780 100
2006-12-18 07:56:43 51°13.754 2°55.681 2.4 41 2.5 102790 100
2006-12-18 07:56:48 51°13.754 2°55.678 2.1 39 2.5 102790 100
2006-12-18 07:56:53 51°13.754 2°55.676 1.9 43 2.5 102780 100
2006-12-18 07:56:58 51°13.754 2°55.676 1.8 31 2.5 102780 100
2006-12-18 07:57:03 51°13.754 2°55.676 1.4 40 2.5 102780 100
2006-12-18 07:57:07 51°13.755 2°55.676 1.8 36 2.5 102790 100
2006-12-18 07:57:13 51°13.755 2°55.678 1.5 34 2.5 102780 100
2006-12-18 07:57:17 51°13.756 2°55.679 1.3 44 2.5 102780 100
2006-12-18 07:57:23 51°13.758 2°55.681 2 32 2.5 102780 100
2006-12-18 07:57:27 51°13.76 2°55.683 1.4 25 2.5 102790 100
2006-12-18 07:57:33 51°13.763 2°55.686 1.3 35 2.5 102790 100
2006-12-18 07:57:39 51°13.766 2°55.688 0.8 78 2.5 102780 100
2006-12-18 07:57:43 51°13.768 2°55.689 0.9 30 2.5 102780 100
2006-12-18 07:57:49 51°13.769 2°55.69 1.6 74 2.5 102780 100
2006-12-18 07:57:53 51°13.769 2°55.69 1.7 38 2.5 102780 100
2006-12-18 07:57:58 51°13.769 2°55.69 1.8 81 2.5 102780 100
2006-12-18 07:58:03 51°13.767 2°55.69 1.8 36 2.5 102780 100
2006-12-18 07:58:07 51°13.765 2°55.689 1.5 77 2.5 102780 100
2006-12-18 07:58:13 51°13.762 2°55.689 2.5 29 2.5 102780 100
2006-12-18 07:58:18 51°13.761 2°55.689 2.5 74 2.5 102780 100
2006-12-18 07:58:23 51°13.76 2°55.688 2 37 2.5 102790 100
2006-12-18 07:58:29 51°13.759 2°55.688 2 80 2.5 102790 100
2006-12-18 07:58:34 51°13.759 2°55.688 2.1 35 2.5 102790 100
2006-12-18 07:58:38 51°13.76 2°55.687 2.5 78 2.5 102790 100
2006-12-18 07:58:43 51°13.762 2°55.686 2.4 11 2.5 102790 100
2006-12-18 07:58:49 51°13.765 2°55.685 1.3 281 2.5 102790 100
2006-12-18 07:58:54 51°13.768 2°55.683 1.1 268 2.5 102790 100
2006-12-18 07:58:58 51°13.771 2°55.68 1.2 280 2.5 102790 100
2006-12-18 07:59:04 51°13.776 2°55.677 1.3 237 2.5 102790 100
2006-12-18 07:59:09 51°13.781 2°55.673 1.1 284 2.5 102790 100
2006-12-18 07:59:13 51°13.785 2°55.67 1.1 236 2.5 102790 100
2006-12-18 07:59:18 51°13.791 2°55.665 1.9 278 2.5 102790 100
2006-12-18 07:59:23 51°13.797 2°55.661 2 324 2.5 102790 100
2006-12-18 07:59:28 51°13.804 2°55.656 1.7 283 2.5 102790 100
2006-12-18 07:59:33 51°13.811 2°55.651 1.6 321 2.5 102790 100
2006-12-18 07:59:38 51°13.819 2°55.645 2 288 2.5 102790 100
2006-12-18 07:59:42 51°13.825 2°55.641 1.7 330 2.5 102790 100
2006-12-18 07:59:47 51°13.833 2°55.635 1.7 283 2.5 102790 100
2006-12-18 07:59:52 51°13.842 2°55.629 1.9 325 2.5 102790 100
2006-12-18 07:59:57 51°13.85 2°55.623 1.7 283 2.5 102790 100
2006-12-18 08:00:02 51°13.859 2°55.616 1.8 318 2.5 102780 100
2006-12-18 08:00:07 51°13.868 2°55.609 2 287 2.5 102780 100
2006-12-18 08:00:12 51°13.877 2°55.602 2.7 324 2.5 102780 100
2006-12-18 08:00:17 51°13.887 2°55.594 2.5 287 2.5 102780 100
2006-12-18 08:00:22 51°13.896 2°55.586 3.1 326 2.5 102780 100
2006-12-18 08:00:27 51°13.905 2°55.579 2.5 281 2.5 102780 100
2006-12-18 08:00:32 51°13.915 2°55.572 2.6 315 2.5 102780 100
2006-12-18 08:00:37 51°13.925 2°55.565 2.6 280 2.6 102780 100
2006-12-18 08:00:43 51°13.937 2°55.556 2.4 30 2.6 102780 100
2006-12-18 08:00:48 51°13.947 2°55.549 2 280 2.6 102780 100
2006-12-18 08:00:53 51°13.956 2°55.542 2.2 324 2.6 102780 100
2006-12-18 08:00:57 51°13.964 2°55.536 2.8 287 2.6 102780 100
2006-12-18 08:01:02 51°13.974 2°55.529 2.6 335 2.6 102780 100
2006-12-18 08:01:07 51°13.985 2°55.522 3.1 283 2.7 102780 100
2006-12-18 08:01:12 51°13.995 2°55.514 2.7 335 2.7 102780 100
2006-12-18 08:01:17 51°14.005 2°55.506 3 285 2.7 102780 100
2006-12-18 08:01:22 51°14.015 2°55.499 2.7 333 2.7 102780 100
2006-12-18 08:01:27 51°14.025 2°55.491 2.5 287 2.7 102790 100
2006-12-18 08:01:33 51°14.038 2°55.482 2.8 325 2.8 102790 100
2006-12-18 08:01:38 51°14.048 2°55.474 2.4 286 2.8 102790 100
2006-12-18 08:01:43 51°14.059 2°55.466 2.3 330 2.8 102780 100
2006-12-18 08:01:48 51°14.069 2°55.458 2.4 284 2.8 102780 100
2006-12-18 08:01:53 51°14.079 2°55.451 2.7 332 2.9 102780 100
2006-12-18 08:01:58 51°14.089 2°55.443 1.8 286 2.9 102780 100
2006-12-18 08:02:03 51°14.099 2°55.435 2 333 2.9 102780 100
2006-12-18 08:02:08 51°14.108 2°55.427 2.4 284 2.9 102780 100
2006-12-18 08:02:13 51°14.118 2°55.42 2.2 317 2.9 102780 100
2006-12-18 08:02:18 51°14.127 2°55.412 1.7 286 2.9 102780 100
2006-12-18 08:02:23 51°14.136 2°55.404 1.6 325 2.9 102780 100
2006-12-18 08:02:27 51°14.144 2°55.398 1.4 287 3 102780 100
2006-12-18 08:02:33 51°14.154 2°55.388 1.3 326 3 102780 100
2006-12-18 08:02:38 51°14.163 2°55.38 1.4 281 3 102780 100
2006-12-18 08:02:42 51°14.17 2°55.373 1.3 319 3 102780 100
2006-12-18 08:02:47 51°14.179 2°55.365 1.4 287 3 102780 100
2006-12-18 08:02:52 51°14.187 2°55.356 1.5 320 3 102780 100
2006-12-18 08:02:58 51°14.197 2°55.345 1.7 283 3 102780 100
2006-12-18 08:03:03 51°14.206 2°55.335 2.1 315 3.1 102780 100
2006-12-18 08:03:08 51°14.214 2°55.323 2.3 281 3.1 102780 100
2006-12-18 08:03:14 51°14.225 2°55.309 2.9 320 3.1 102790 100
2006-12-18 08:03:17 51°14.23 2°55.302 2.8 285 3.1 102790 100
2006-12-18 08:03:23 51°14.241 2°55.286 2.9 322 3.1 102780 100
2006-12-18 08:03:27 51°14.249 2°55.275 3.5 282 3.1 102780 100
2006-12-18 08:03:32 51°14.258 2°55.26 3.3 323 3.1 102780 100
2006-12-18 08:03:37 51°14.267 2°55.244 4.2 282 3.1 102780 100
2006-12-18 08:03:42 51°14.277 2°55.229 4 319 3.1 102780 100
2006-12-18 08:03:47 51°14.286 2°55.212 4.1 285 3.2 102780 100
2006-12-18 08:03:52 51°14.295 2°55.195 4.3 321 3.2 102780 100
2006-12-18 08:03:57 51°14.305 2°55.178 4.1 280 3.2 102780 100
2006-12-18 08:04:02 51°14.314 2°55.16 4.1 317 3.2 102780 100
2006-12-18 08:04:07 51°14.324 2°55.142 4.6 284 3.3 102780 100
2006-12-18 08:04:12 51°14.333 2°55.123 4.4 318 3.3 102780 100
2006-12-18 08:04:17 51°14.343 2°55.104 4.3 287 3.3 102780 100
2006-12-18 08:04:21 51°14.351 2°55.089 4.6 322 3.4 102780 100
2006-12-18 08:04:26 51°14.361 2°55.07 4.6 287 3.4 102780 100
2006-12-18 08:04:31 51°14.372 2°55.051 4.2 320 3.4 102780 100
2006-12-18 08:04:36 51°14.384 2°55.032 4.7 281 3.4 102780 100
2006-12-18 08:04:41 51°14.397 2°55.015 4.6 325 3.5 102780 100
2006-12-18 08:04:46 51°14.411 2°54.999 4.7 281 3.5 102780 100
2006-12-18 08:04:51 51°14.426 2°54.985 4.3 330 3.5 102770 100
2006-12-18 08:04:56 51°14.44 2°54.97 4.3 282 3.5 102770 100
2006-12-18 08:05:01 51°14.455 2°54.956 4.7 328 3.6 102780 100
2006-12-18 08:05:06 51°14.47 2°54.941 4.7 286 3.6 102780 100
2006-12-18 08:05:11 51°14.485 2°54.925 5.1 330 3.6 102780 100
2006-12-18 08:05:15 51°14.497 2°54.913 5.5 280 3.7 102780 100
2006-12-18 08:05:21 51°14.515 2°54.893 5.5 323 3.7 102780 100
2006-12-18 08:05:25 51°14.526 2°54.88 5.4 286 3.7 102780 100
2006-12-18 08:05:30 51°14.541 2°54.863 5.6 323 3.8 102780 100
2006-12-18 08:05:35 51°14.556 2°54.847 5.4 286 3.8 102780 100
2006-12-18 08:05:40 51°14.57 2°54.83 5 324 3.8 102780 100
2006-12-18 08:05:45 51°14.585 2°54.813 5.4 286 3.8 102790 100
2006-12-18 08:05:50 51°14.601 2°54.797 5.4 324 3.9 102780 100
2006-12-18 08:05:55 51°14.616 2°54.78 5.5 286 3.9 102780 100
2006-12-18 08:06:00 51°14.631 2°54.763 5.1 320 3.9 102780 100
2006-12-18 08:06:05 51°14.646 2°54.746 5.1 285 4 102770 100
2006-12-18 08:06:10 51°14.662 2°54.728 5.2 322 4 102780 100
2006-12-18 08:06:14 51°14.674 2°54.714 5.2 279 4 102780 100
2006-12-18 08:06:19 51°14.69 2°54.697 5.4 321 4 102780 100
2006-12-18 08:06:24 51°14.705 2°54.679 5.6 285 4 102770 100
2006-12-18 08:06:29 51°14.721 2°54.662 6.1 320 4.1 102780 100
2006-12-18 08:06:34 51°14.736 2°54.644 6.9 280 4.1 102780 100
2006-12-18 08:06:39 51°14.752 2°54.626 8.1 320 4.1 102780 100
2006-12-18 08:06:44 51°14.768 2°54.609 7.1 280 4.1 102780 100
2006-12-18 08:06:49 51°14.784 2°54.591 7.6 318 4.1 102780 100
2006-12-18 08:06:54 51°14.799 2°54.573 6.3 286 4.1 102780 100
2006-12-18 08:06:59 51°14.815 2°54.555 6.1 318 4.2 102770 100
2006-12-18 08:07:04 51°14.831 2°54.537 6.2 283 4.2 102770 100
2006-12-18 08:07:09 51°14.847 2°54.52 6 319 4.2 102770 100
2006-12-18 08:07:14 51°14.863 2°54.502 5.5 284 4.2 102770 100
2006-12-18 08:07:20 51°14.881 2°54.48 5.6 318 4.1 102770 100
2006-12-18 08:07:24 51°14.894 2°54.466 5.7 287 4.1 102770 100
2006-12-18 08:07:29 51°14.91 2°54.448 5.5 319 4.1 102780 100
2006-12-18 08:07:34 51°14.925 2°54.431 6 279 4.1 102780 100
2006-12-18 08:07:39 51°14.941 2°54.413 6.1 319 4.1 102780 100
2006-12-18 08:07:44 51°14.957 2°54.396 5.4 281 4.1 102780 100
2006-12-18 08:07:49 51°14.972 2°54.378 4.8 318 4.1 102780 100
2006-12-18 08:07:54 51°14.988 2°54.362 5.6 281 4.1 102780 100
2006-12-18 08:07:59 51°15.003 2°54.345 5.8 321 4.1 102780 100
2006-12-18 08:08:04 51°15.019 2°54.328 5.5 282 4.1 102780 100
2006-12-18 08:08:09 51°15.035 2°54.312 5.7 320 4.1 102780 100
2006-12-18 08:08:14 51°15.051 2°54.296 5 281 4.1 102780 100
2006-12-18 08:08:19 51°15.067 2°54.28 4.9 321 4.1 102780 100
2006-12-18 08:08:25 51°15.086 2°54.261 5.3 286 4.1 102780 100
2006-12-18 08:08:29 51°15.099 2°54.248 5.7 322 4.1 102780 100
2006-12-18 08:08:34 51°15.115 2°54.231 3.3 283 4.1 102780 100
2006-12-18 08:08:39 51°15.131 2°54.215 5.6 322 4.1 102790 100
2006-12-18 08:08:44 51°15.147 2°54.198 5.4 284 4.1 102790 100
2006-12-18 08:08:49 51°15.163 2°54.181 6 321 4.1 102780 100
2006-12-18 08:08:54 51°15.178 2°54.163 5.4 281 4.1 102780 100
2006-12-18 08:08:59 51°15.194 2°54.146 5.8 321 4.1 102780 100
2006-12-18 08:09:04 51°15.21 2°54.129 5.4 279 4.1 102780 100
2006-12-18 08:09:09 51°15.226 2°54.112 5.6 321 4.1 102790 100
2006-12-18 08:09:14 51°15.243 2°54.096 6.1 286 4.1 102790 100
2006-12-18 08:09:19 51°15.259 2°54.079 5.7 320 4.1 102790 100
2006-12-18 08:09:25 51°15.278 2°54.06 6.2 280 4.1 102790 100
2006-12-18 08:09:29 51°15.291 2°54.047 6.1 320 4.1 102790 100
2006-12-18 08:09:34 51°15.308 2°54.03 6.2 286 4.1 102790 100
2006-12-18 08:09:39 51°15.324 2°54.015 6.3 318 4.2 102780 100
2006-12-18 08:09:44 51°15.341 2°53.998 6.4 283 4.2 102780 100
2006-12-18 08:09:49 51°15.357 2°53.982 6.3 319 4.2 102770 100
2006-12-18 08:09:54 51°15.373 2°53.965 6.3 280 4.2 102770 100
2006-12-18 08:09:59 51°15.39 2°53.948 5.8 317 4.2 102780 100
2006-12-18 08:10:04 51°15.406 2°53.931 6.1 282 4.2 102780 100
2006-12-18 08:10:09 51°15.422 2°53.915 5.9 320 4.3 102770 100
2006-12-18 08:10:14 51°15.438 2°53.898 6.3 280 4.3 102770 100
2006-12-18 08:10:19 51°15.455 2°53.882 6.3 319 4.3 102770 100
2006-12-18 08:10:24 51°15.471 2°53.865 6.2 282 4.3 102780 100
2006-12-18 08:10:29 51°15.488 2°53.849 5.7 316 4.3 102780 100
2006-12-18 08:10:34 51°15.504 2°53.832 6 285 4.3 102780 100
2006-12-18 08:10:39 51°15.52 2°53.815 6.2 317 4.3 102770 100
2006-12-18 08:10:44 51°15.537 2°53.799 5.6 282 4.3 102770 100
2006-12-18 08:10:49 51°15.553 2°53.782 5.6 318 4.3 102780 100
2006-12-18 08:10:54 51°15.569 2°53.765 5.4 284 4.3 102780 100
2006-12-18 08:10:59 51°15.586 2°53.749 5.3 316 4.4 102780 100
2006-12-18 08:11:04 51°15.602 2°53.732 5.6 282 4.4 102780 100
2006-12-18 08:11:09 51°15.618 2°53.716 5.5 318 4.4 102780 100
2006-12-18 08:11:14 51°15.635 2°53.699 5.3 286 4.4 102780 100
2006-12-18 08:11:19 51°15.652 2°53.683 5.4 318 4.4 102780 100
2006-12-18 08:11:24 51°15.668 2°53.667 5.6 281 4.4 102780 100
2006-12-18 08:11:29 51°15.685 2°53.651 5.2 317 4.4 102780 100
2006-12-18 08:11:34 51°15.701 2°53.635 6.2 285 4.4 102780 100
2006-12-18 08:11:39 51°15.718 2°53.619 5.8 319 4.5 102780 100
2006-12-18 08:11:44 51°15.734 2°53.603 5.7 282 4.5 102780 100
2006-12-18 08:11:49 51°15.751 2°53.586 6 318 4.5 102770 100
2006-12-18 08:11:54 51°15.767 2°53.57 6.2 285 4.5 102770 100
2006-12-18 08:11:59 51°15.783 2°53.555 6 321 4.5 102780 100
2006-12-18 08:12:04 51°15.8 2°53.539 5.6 282 4.5 102780 100
2006-12-18 08:12:09 51°15.816 2°53.523 6.2 320 4.6 102770 100
2006-12-18 08:12:14 51°15.832 2°53.507 6.2 285 4.6 102770 100
2006-12-18 08:12:19 51°15.849 2°53.491 5.8 316 4.6 102780 100
2006-12-18 08:12:24 51°15.865 2°53.476 5.8 280 4.6 102780 100
2006-12-18 08:12:29 51°15.881 2°53.46 5.6 319 4.6 102780 100
2006-12-18 08:12:34 51°15.897 2°53.445 5.3 286 4.6 102780 100
2006-12-18 08:12:39 51°15.914 2°53.429 5.4 316 4.6 102780 100
2006-12-18 08:12:44 51°15.93 2°53.414 5.5 286 4.6 102780 100
2006-12-18 08:12:49 51°15.946 2°53.398 5.5 316 4.7 102780 100
2006-12-18 08:12:54 51°15.963 2°53.383 5.5 282 4.7 102780 100
2006-12-18 08:12:59 51°15.979 2°53.367 5.4 319 4.7 102770 100
2006-12-18 08:13:05 51°15.999 2°53.349 5.4 281 4.7 102770 100
2006-12-18 08:13:09 51°16.012 2°53.337 5.4 315 4.7 102770 100
2006-12-18 08:13:14 51°16.028 2°53.321 4.9 282 4.7 102770 100
2006-12-18 08:13:19 51°16.044 2°53.305 5.2 319 4.7 102780 100
2006-12-18 08:13:24 51°16.061 2°53.29 5.6 280 4.7 102780 100
2006-12-18 08:13:29 51°16.077 2°53.274 5.6 320 4.6 102780 100
2006-12-18 08:13:34 51°16.094 2°53.259 5.8 280 4.6 102780 100
2006-12-18 08:13:39 51°16.11 2°53.244 5.9 318 4.6 102780 100
2006-12-18 08:13:44 51°16.126 2°53.229 5.4 279 4.6 102780 100
2006-12-18 08:13:49 51°16.143 2°53.214 5.2 319 4.6 102780 100
2006-12-18 08:13:54 51°16.16 2°53.198 5.7 280 4.6 102780 100
2006-12-18 08:13:59 51°16.176 2°53.183 5.9 318 4.6 102780 100
2006-12-18 08:14:04 51°16.192 2°53.168 5.8 280 4.6 102780 100
2006-12-18 08:14:09 51°16.209 2°53.154 5.5 322 4.7 102780 100
2006-12-18 08:14:14 51°16.226 2°53.139 5.9 284 4.7 102780 100
2006-12-18 08:14:19 51°16.243 2°53.125 5.7 321 4.7 102780 100
2006-12-18 08:14:24 51°16.26 2°53.111 5.6 287 4.7 102780 100
2006-12-18 08:14:29 51°16.277 2°53.097 5.9 321 4.7 102770 100
2006-12-18 08:14:34 51°16.293 2°53.082 5.3 284 4.7 102770 100
2006-12-18 08:14:39 51°16.311 2°53.069 5.1 320 4.7 102770 100
2006-12-18 08:14:44 51°16.327 2°53.055 6.1 285 4.7 102770 100
2006-12-18 08:14:49 51°16.344 2°53.041 6.2 320 4.7 102780 100
2006-12-18 08:14:54 51°16.361 2°53.026 5.2 286 4.7 102780 100
2006-12-18 08:14:59 51°16.378 2°53.012 5.4 321 4.7 102780 100
2006-12-18 08:15:04 51°16.395 2°52.999 5.5 286 4.8 102780 100
2006-12-18 08:15:09 51°16.412 2°52.985 5.5 319 4.8 102770 100
2006-12-18 08:15:14 51°16.428 2°52.971 5.5 285 4.8 102770 100
2006-12-18 08:15:19 51°16.445 2°52.956 5.1 319 4.8 102780 100
2006-12-18 08:15:25 51°16.466 2°52.94 4.9 280 4.8 102780 100
2006-12-18 08:15:29 51°16.479 2°52.929 5.3 321 4.8 102770 100
2006-12-18 08:15:34 51°16.496 2°52.914 5.6 286 4.8 102770 100
2006-12-18 08:15:39 51°16.513 2°52.9 5.3 321 4.8 102770 100
2006-12-18 08:15:44 51°16.53 2°52.886 4.9 280 4.8 102770 100
2006-12-18 08:15:49 51°16.546 2°52.872 5.3 321 4.9 102780 100
2006-12-18 08:15:54 51°16.563 2°52.858 5.2 281 4.9 102780 100
2006-12-18 08:15:59 51°16.58 2°52.844 5 320 4.9 102780 100
2006-12-18 08:16:04 51°16.597 2°52.83 5.4 286 4.9 102780 100
2006-12-18 08:16:09 51°16.614 2°52.815 5.7 322 4.9 102780 100
2006-12-18 08:16:14 51°16.63 2°52.801 5.4 287 4.9 102780 100
2006-12-18 08:16:19 51°16.647 2°52.787 5.3 321 4.9 102780 100
2006-12-18 08:16:24 51°16.664 2°52.773 5 286 4.9 102780 100
2006-12-18 08:16:29 51°16.68 2°52.758 4.8 319 4.9 102770 100
2006-12-18 08:16:34 51°16.697 2°52.744 5 281 4.9 102770 100
2006-12-18 08:16:39 51°16.713 2°52.729 4.8 320 5 102780 100
2006-12-18 08:16:44 51°16.73 2°52.715 5.2 282 5 102780 100
2006-12-18 08:16:49 51°16.746 2°52.701 5.5 321 5 102780 100
2006-12-18 08:16:54 51°16.762 2°52.687 5.2 280 5 102780 100
2006-12-18 08:16:59 51°16.779 2°52.673 5.1 316 5 102770 100
2006-12-18 08:17:04 51°16.795 2°52.658 4.5 279 5 102770 100
2006-12-18 08:17:09 51°16.812 2°52.647 4.8 323 5 102770 100
2006-12-18 08:17:14 51°16.829 2°52.635 5.1 279 5 102770 100
2006-12-18 08:17:19 51°16.846 2°52.624 4.9 321 5 102770 100
2006-12-18 08:17:24 51°16.864 2°52.616 4.9 279 5.1 102770 100
2006-12-18 08:17:29 51°16.882 2°52.607 4.4 324 5.1 102780 100
2006-12-18 08:17:34 51°16.9 2°52.6 5 280 5.1 102780 100
2006-12-18 08:17:39 51°16.918 2°52.592 4.9 324 5.1 102780 100
2006-12-18 08:17:44 51°16.936 2°52.586 4.4 279 5.1 102780 100
2006-12-18 08:17:49 51°16.955 2°52.58 4.5 327 5.1 102780 100
2006-12-18 08:17:54 51°16.973 2°52.575 4.7 280 5.1 102780 100
2006-12-18 08:17:59 51°16.991 2°52.57 4.5 322 5.1 102770 100
2006-12-18 08:18:04 51°17.01 2°52.565 5.3 281 5.1 102770 100
2006-12-18 08:18:09 51°17.028 2°52.561 4.9 323 5.1 102770 100
2006-12-18 08:18:14 51°17.047 2°52.557 4.6 279 5.1 102780 100
2006-12-18 08:18:19 51°17.065 2°52.553 4.3 325 5.2 102780 100
2006-12-18 08:18:24 51°17.084 2°52.549 4.6 282 5.2 102780 100
2006-12-18 08:18:29 51°17.102 2°52.545 4.5 324 5.2 102770 100
2006-12-18 08:18:34 51°17.121 2°52.541 4.3 282 5.2 102770 100
2006-12-18 08:18:39 51°17.139 2°52.537 4.4 325 5.2 102780 100
2006-12-18 08:18:44 51°17.157 2°52.533 4.5 280 5.2 102780 100
2006-12-18 08:18:49 51°17.176 2°52.529 4.3 324 5.2 102780 100
2006-12-18 08:18:54 51°17.194 2°52.526 4.8 286 5.2 102780 100
2006-12-18 08:18:59 51°17.213 2°52.522 4.5 324 5.3 102780 100
2006-12-18 08:19:04 51°17.232 2°52.519 4.6 280 5.3 102780 100
2006-12-18 08:19:09 51°17.25 2°52.516 4.6 328 5.3 102780 100
2006-12-18 08:19:14 51°17.269 2°52.514 4.3 284 5.3 102780 100
2006-12-18 08:19:19 51°17.287 2°52.511 4.7 324 5.3 102780 100
2006-12-18 08:19:25 51°17.31 2°52.508 4.6 281 5.3 102780 100
2006-12-18 08:19:29 51°17.325 2°52.505 4.6 324 5.3 102780 100
2006-12-18 08:19:34 51°17.343 2°52.502 4.7 287 5.3 102780 100
2006-12-18 08:19:39 51°17.362 2°52.499 4.4 324 5.3 102780 100
2006-12-18 08:19:45 51°17.384 2°52.495 4.2 285 5.3 102780 100
2006-12-18 08:19:49 51°17.399 2°52.493 4.4 327 5.4 102780 100
2006-12-18 08:19:54 51°17.418 2°52.491 4.6 284 5.4 102780 100
2006-12-18 08:19:59 51°17.437 2°52.49 4.5 325 5.4 102780 100
2006-12-18 08:20:04 51°17.455 2°52.488 4.2 287 5.4 102780 100
2006-12-18 08:20:09 51°17.474 2°52.487 4.6 325 5.4 102780 100
2006-12-18 08:20:14 51°17.493 2°52.486 4.3 282 5.4 102780 100
2006-12-18 08:20:19 51°17.511 2°52.484 5.1 326 5.4 102780 100
2006-12-18 08:20:24 51°17.53 2°52.485 4.2 287 5.4 102780 100
2006-12-18 08:20:29 51°17.549 2°52.485 4.1 325 5.5 102780 100
2006-12-18 08:20:34 51°17.567 2°52.485 4.4 286 5.5 102780 100
2006-12-18 08:20:39 51°17.586 2°52.486 4.3 327 5.5 102780 100
2006-12-18 08:20:44 51°17.604 2°52.487 4.3 281 5.5 102780 100
2006-12-18 08:20:49 51°17.623 2°52.488 4.4 327 5.5 102780 100
2006-12-18 08:20:54 51°17.642 2°52.489 4 279 5.5 102780 100
2006-12-18 08:20:59 51°17.661 2°52.49 4.2 327 5.5 102770 100
2006-12-18 08:21:04 51°17.679 2°52.491 4.1 280 5.5 102770 100
2006-12-18 08:21:09 51°17.698 2°52.492 4.4 326 5.5 102770 100
2006-12-18 08:21:14 51°17.716 2°52.493 4.7 282 5.5 102770 100
2006-12-18 08:21:19 51°17.735 2°52.494 5 326 5.5 102790 100
2006-12-18 08:21:24 51°17.754 2°52.496 3.9 279 5.5 102790 100
2006-12-18 08:21:29 51°17.772 2°52.499 4 328 5.5 102780 100
2006-12-18 08:21:34 51°17.791 2°52.502 4.4 281 5.5 102780 100
2006-12-18 08:21:39 51°17.809 2°52.505 4.3 329 5.5 102780 100
2006-12-18 08:21:45 51°17.832 2°52.51 3.7 282 5.5 102780 100
2006-12-18 08:21:49 51°17.846 2°52.513 4.4 330 5.5 102790 100
2006-12-18 08:21:54 51°17.865 2°52.517 4.7 286 5.5 102790 100
2006-12-18 08:21:59 51°17.883 2°52.521 4.5 331 5.6 102780 100
2006-12-18 08:22:04 51°17.901 2°52.526 4 285 5.6 102780 100
2006-12-18 08:22:09 51°17.92 2°52.53 4 330 5.6 102790 100
2006-12-18 08:22:14 51°17.938 2°52.536 3.8 286 5.6 102790 100
2006-12-18 08:22:19 51°17.957 2°52.541 3.8 332 5.6 102790 100
2006-12-18 08:22:24 51°17.975 2°52.545 4 282 5.6 102770 100
2006-12-18 08:22:29 51°17.994 2°52.551 4 330 5.6 102780 100
2006-12-18 08:22:34 51°18.012 2°52.556 4.4 282 5.6 102780 100
2006-12-18 08:22:39 51°18.03 2°52.564 4.5 332 5.6 102790 100
2006-12-18 08:22:44 51°18.048 2°52.572 4.6 281 5.6 102790 100
2006-12-18 08:22:49 51°18.066 2°52.581 4.3 333 5.6 102780 100
2006-12-18 08:22:54 51°18.084 2°52.591 4 280 5.6 102780 100
2006-12-18 08:22:59 51°18.101 2°52.601 4.3 333 5.6 102780 100
2006-12-18 08:23:04 51°18.119 2°52.611 4.2 280 5.6 102780 100
2006-12-18 08:23:09 51°18.137 2°52.622 4.2 335 5.6 102780 100
2006-12-18 08:23:14 51°18.154 2°52.633 4.5 287 5.6 102780 100
2006-12-18 08:23:19 51°18.171 2°52.648 4.5 334 5.7 102780 100
2006-12-18 08:23:24 51°18.187 2°52.662 4.4 281 5.7 102780 100
2006-12-18 08:23:29 51°18.203 2°52.677 4.5 342 5.7 102790 100
2006-12-18 08:23:34 51°18.219 2°52.694 4.9 285 5.7 102790 100
2006-12-18 08:23:39 51°18.234 2°52.712 4.5 344 5.7 102780 100
2006-12-18 08:23:44 51°18.249 2°52.73 5 285 5.7 102780 100
2006-12-18 08:23:49 51°18.264 2°52.749 4.9 339 5.7 102780 100
2006-12-18 08:23:54 51°18.278 2°52.769 4.6 282 5.7 102780 100
2006-12-18 08:23:59 51°18.292 2°52.788 4.7 340 5.7 102780 100
2006-12-18 08:24:05 51°18.309 2°52.812 4.6 285 5.7 102780 100
2006-12-18 08:24:09 51°18.32 2°52.828 4.5 343 5.7 102780 100
2006-12-18 08:24:14 51°18.334 2°52.849 4.5 280 5.7 102780 100
2006-12-18 08:24:19 51°18.348 2°52.869 4.5 341 5.7 102780 100
2006-12-18 08:24:24 51°18.362 2°52.889 4.5 286 5.7 102780 100
2006-12-18 08:24:29 51°18.376 2°52.909 4.5 341 5.7 102780 100
2006-12-18 08:24:34 51°18.39 2°52.93 4.7 281 5.7 102780 100
2006-12-18 08:24:39 51°18.404 2°52.95 4.9 342 5.7 102790 100
2006-12-18 08:24:44 51°18.418 2°52.97 4.7 280 5.7 102790 100
2006-12-18 08:24:49 51°18.432 2°52.99 4.9 340 5.8 102790 100
2006-12-18 08:24:54 51°18.446 2°53.01 5.2 285 5.8 102790 100
2006-12-18 08:24:59 51°18.46 2°53.03 4.9 342 5.8 102780 100
2006-12-18 08:25:04 51°18.474 2°53.05 5.3 281 5.8 102780 100
2006-12-18 08:25:09 51°18.488 2°53.07 5 342 5.8 102790 100
2006-12-18 08:25:14 51°18.503 2°53.089 5.1 285 5.8 102790 100
2006-12-18 08:25:19 51°18.517 2°53.109 5.7 344 5.8 102770 100
2006-12-18 08:25:25 51°18.534 2°53.133 4.8 282 5.8 102770 100
2006-12-18 08:25:29 51°18.546 2°53.149 4.7 342 5.8 102780 100
2006-12-18 08:25:34 51°18.56 2°53.168 4.7 285 5.8 102780 100
2006-12-18 08:25:39 51°18.574 2°53.188 4.6 342 5.8 102780 100
2006-12-18 08:25:44 51°18.588 2°53.208 4.8 287 5.8 102780 100
2006-12-18 08:25:49 51°18.603 2°53.227 4.7 342 5.8 102780 100
2006-12-18 08:25:54 51°18.617 2°53.247 5 282 5.8 102780 100
2006-12-18 08:25:59 51°18.632 2°53.266 4.4 343 5.8 102780 100
2006-12-18 08:26:04 51°18.646 2°53.286 4.3 279 5.8 102780 100
2006-12-18 08:26:09 51°18.66 2°53.306 4.1 342 5.8 102780 100
2006-12-18 08:26:14 51°18.675 2°53.325 4.3 280 5.8 102780 100
2006-12-18 08:26:19 51°18.689 2°53.345 4.2 342 5.8 102780 100
2006-12-18 08:26:25 51°18.706 2°53.369 4.8 283 5.8 102790 100
2006-12-18 08:26:29 51°18.718 2°53.384 4.2 344 5.8 102790 100
2006-12-18 08:26:34 51°18.732 2°53.404 4.2 282 5.8 102790 100
2006-12-18 08:26:39 51°18.747 2°53.423 4.4 346 5.8 102790 100
2006-12-18 08:26:45 51°18.764 2°53.447 4.7 279 5.8 102790 100
2006-12-18 08:26:49 51°18.776 2°53.462 4.4 344 5.8 102790 100
2006-12-18 08:26:54 51°18.79 2°53.482 5 280 5.8 102790 100
2006-12-18 08:26:59 51°18.804 2°53.502 4.8 342 5.9 102790 100
2006-12-18 08:27:04 51°18.818 2°53.522 4.8 285 5.9 102790 100
2006-12-18 08:27:10 51°18.835 2°53.546 4.7 340 5.8 102780 100
2006-12-18 08:27:14 51°18.847 2°53.562 4.1 282 5.8 102780 100
2006-12-18 08:27:19 51°18.861 2°53.582 4.4 340 5.8 102780 100
2006-12-18 08:27:24 51°18.876 2°53.601 4.5 281 5.8 102780 100
2006-12-18 08:27:29 51°18.89 2°53.622 3.9 343 5.9 102790 100
2006-12-18 08:27:34 51°18.904 2°53.641 5 281 5.9 102790 100
2006-12-18 08:27:39 51°18.919 2°53.661 4.6 343 5.9 102790 100
2006-12-18 08:27:44 51°18.933 2°53.68 4.3 279 5.9 102790 100
2006-12-18 08:27:49 51°18.947 2°53.7 4.4 341 5.9 102790 100
2006-12-18 08:27:54 51°18.962 2°53.72 4.5 281 5.9 102790 100
2006-12-18 08:27:59 51°18.976 2°53.74 4.4 342 5.9 102780 100
2006-12-18 08:28:04 51°18.991 2°53.759 4.2 284 5.9 102780 100
2006-12-18 08:28:09 51°19.005 2°53.779 4.5 343 5.9 102790 100
2006-12-18 08:28:14 51°19.02 2°53.799 4.8 282 5.9 102790 100
2006-12-18 08:28:19 51°19.034 2°53.819 4.5 342 5.9 102790 100
2006-12-18 08:28:24 51°19.048 2°53.839 4.5 282 5.9 102790 100
2006-12-18 08:28:29 51°19.063 2°53.858 4.7 341 5.9 102790 100
2006-12-18 08:28:34 51°19.077 2°53.878 4.5 347 5.9 102790 100
2006-12-18 08:28:39 51°19.092 2°53.898 4.7 340 5.9 102780 100
2006-12-18 08:28:44 51°19.106 2°53.917 4.5 281 5.9 102780 100
2006-12-18 08:28:49 51°19.12 2°53.937 4.7 342 5.9 102780 100
2006-12-18 08:28:54 51°19.135 2°53.957 4.7 285 5.9 102780 100
2006-12-18 08:28:59 51°19.149 2°53.977 4.3 342 5.9 102790 100
2006-12-18 08:29:04 51°19.164 2°53.996 4.5 281 5.9 102790 100
2006-12-18 08:29:09 51°19.178 2°54.016 4.6 338 6 102780 100
2006-12-18 08:29:14 51°19.193 2°54.036 4.7 280 6 102780 100
2006-12-18 08:29:19 51°19.207 2°54.055 4.8 344 6 102780 100
2006-12-18 08:29:24 51°19.221 2°54.075 4.3 286 6 102780 100
2006-12-18 08:29:29 51°19.236 2°54.094 4.7 342 6 102780 100
2006-12-18 08:29:34 51°19.251 2°54.114 4.6 286 6 102780 100
2006-12-18 08:29:39 51°19.266 2°54.133 4.2 347 6 102780 100
2006-12-18 08:29:44 51°19.28 2°54.153 4.5 285 6 102780 100
2006-12-18 08:29:49 51°19.294 2°54.172 4.5 344 6 102780 100
2006-12-18 08:29:54 51°19.308 2°54.192 4 280 6 102780 100
2006-12-18 08:29:59 51°19.323 2°54.212 4 343 6 102790 100
2006-12-18 08:30:05 51°19.34 2°54.236 4 282 6 102790 100
2006-12-18 08:30:09 51°19.351 2°54.252 4.6 344 6 102780 100
2006-12-18 08:30:14 51°19.366 2°54.271 4 287 6 102780 100
2006-12-18 08:30:19 51°19.38 2°54.291 4.4 340 6 102790 100
2006-12-18 08:30:25 51°19.397 2°54.314 4.4 287 6 102790 100
2006-12-18 08:30:29 51°19.409 2°54.33 4.2 341 6 102790 100
2006-12-18 08:30:34 51°19.423 2°54.349 4.3 285 6 102790 100
2006-12-18 08:30:39 51°19.438 2°54.369 4.1 342 6 102790 100
2006-12-18 08:30:44 51°19.452 2°54.389 3.7 284 6 102790 100
2006-12-18 08:30:49 51°19.467 2°54.408 3.9 340 6 102790 100
2006-12-18 08:30:54 51°19.481 2°54.428 3.9 285 6 102790 100
2006-12-18 08:30:59 51°19.496 2°54.447 4.7 336 6 102780 100
2006-12-18 08:31:04 51°19.51 2°54.467 4.5 280 6 102780 100
2006-12-18 08:31:09 51°19.524 2°54.487 4.6 341 6 102790 100
2006-12-18 08:31:14 51°19.539 2°54.506 4.2 345 6 102790 100
2006-12-18 08:31:19 51°19.553 2°54.527 3.7 342 6 102790 100
2006-12-18 08:31:24 51°19.567 2°54.547 3.8 345 6 102790 100
2006-12-18 08:31:29 51°19.581 2°54.567 5.3 339 6 102790 100
2006-12-18 08:31:34 51°19.595 2°54.587 4.5 344 6 102790 100
2006-12-18 08:31:39 51°19.609 2°54.608 4.1 343 6 102790 100
2006-12-18 08:31:44 51°19.623 2°54.629 4.2 282 6 102790 100
2006-12-18 08:31:49 51°19.636 2°54.65 4.2 340 6 102790 100
2006-12-18 08:31:54 51°19.65 2°54.671 4.6 280 6 102790 100
2006-12-18 08:31:59 51°19.664 2°54.692 4.1 343 6 102780 100
2006-12-18 08:32:04 51°19.678 2°54.713 4.5 279 6 102780 100
2006-12-18 08:32:10 51°19.694 2°54.739 4.6 341 6 102780 100
2006-12-18 08:32:14 51°19.705 2°54.755 4 280 6 102780 100
2006-12-18 08:32:19 51°19.719 2°54.776 4.1 339 6 102790 100
2006-12-18 08:32:24 51°19.733 2°54.797 4.9 280 6 102790 100
2006-12-18 08:32:29 51°19.746 2°54.818 4.8 342 6 102790 100
2006-12-18 08:32:34 51°19.761 2°54.839 4.3 281 6 102790 100
2006-12-18 08:32:39 51°19.774 2°54.86 4.5 341 6.1 102790 100
2006-12-18 08:32:45 51°19.791 2°54.885 4.8 285 6.1 102790 100
2006-12-18 08:32:49 51°19.803 2°54.901 4.7 343 6.1 102790 100
2006-12-18 08:32:54 51°19.816 2°54.922 4.4 279 6.1 102790 100
2006-12-18 08:32:59 51°19.83 2°54.942 4.9 341 6.1 102790 100
2006-12-18 08:33:04 51°19.844 2°54.963 4.7 282 6.1 102790 100
2006-12-18 08:33:10 51°19.86 2°54.989 4.6 342 6.1 102780 100
2006-12-18 08:33:14 51°19.872 2°55.005 4.4 282 6.1 102780 100
2006-12-18 08:33:19 51°19.886 2°55.026 4.4 344 6.1 102780 100
2006-12-18 08:33:25 51°19.902 2°55.052 4.2 280 6.1 102780 100
2006-12-18 08:33:29 51°19.913 2°55.068 4.3 342 6.1 102780 100
2006-12-18 08:33:34 51°19.927 2°55.089 4.4 280 6.1 102780 100
2006-12-18 08:33:39 51°19.941 2°55.11 4.6 343 6.1 102790 100
2006-12-18 08:33:44 51°19.955 2°55.131 4.8 280 6.1 102790 100
2006-12-18 08:33:49 51°19.969 2°55.152 4.4 340 6.1 102790 100
2006-12-18 08:33:54 51°19.983 2°55.172 4.4 280 6.1 102790 100
2006-12-18 08:33:59 51°19.997 2°55.193 4.3 342 6.2 102780 100
2006-12-18 08:34:04 51°20.01 2°55.214 4.1 287 6.2 102780 100
2006-12-18 08:34:09 51°20.024 2°55.235 4.4 341 6.1 102790 100
2006-12-18 08:34:14 51°20.038 2°55.256 4.7 280 6.1 102790 100
2006-12-18 08:34:19 51°20.052 2°55.277 4.5 343 6.2 102780 100
2006-12-18 08:34:24 51°20.065 2°55.298 4.8 285 6.2 102780 100
2006-12-18 08:34:29 51°20.079 2°55.319 4.7 343 6.2 102790 100
2006-12-18 08:34:34 51°20.093 2°55.34 3.9 286 6.2 102790 100
2006-12-18 08:34:39 51°20.107 2°55.362 4.6 343 6.2 102780 100
2006-12-18 08:34:44 51°20.121 2°55.383 3.8 280 6.2 102780 100
2006-12-18 08:34:49 51°20.134 2°55.404 3.9 343 6.2 102790 100
2006-12-18 08:34:54 51°20.148 2°55.425 4 280 6.2 102790 100
2006-12-18 08:34:59 51°20.162 2°55.446 4 342 6.2 102790 100
2006-12-18 08:35:05 51°20.179 2°55.471 4.6 285 6.2 102790 100
2006-12-18 08:35:09 51°20.19 2°55.488 4.5 342 6.2 102790 100
2006-12-18 08:35:14 51°20.204 2°55.508 4.3 281 6.2 102790 100
2006-12-18 08:35:19 51°20.217 2°55.53 4.3 342 6.1 102790 100
2006-12-18 08:35:24 51°20.231 2°55.551 3.7 281 6.1 102790 100
2006-12-18 08:35:29 51°20.245 2°55.572 3.8 343 6.2 102790 100
2006-12-18 08:35:34 51°20.259 2°55.592 4.1 280 6.2 102790 100
2006-12-18 08:35:39 51°20.273 2°55.613 4 341 6.2 102790 100
2006-12-18 08:35:44 51°20.287 2°55.634 3.9 282 6.1 102780 100
2006-12-18 08:35:49 51°20.301 2°55.655 4.3 343 6.1 102790 100
2006-12-18 08:35:54 51°20.314 2°55.676 4.3 281 6.1 102790 100
2006-12-18 08:35:59 51°20.328 2°55.697 4.1 339 6.1 102780 100
2006-12-18 08:36:04 51°20.341 2°55.718 4.2 281 6.1 102780 100
2006-12-18 08:36:09 51°20.355 2°55.739 4.8 342 6.1 102790 100
2006-12-18 08:36:14 51°20.369 2°55.76 4.3 281 6.1 102790 100
2006-12-18 08:36:19 51°20.382 2°55.782 4.1 341 6.1 102790 100
2006-12-18 08:36:24 51°20.396 2°55.803 3.7 280 6.1 102790 100
2006-12-18 08:36:29 51°20.409 2°55.824 4.3 341 6.2 102800 100
2006-12-18 08:36:34 51°20.423 2°55.845 4.5 280 6.2 102800 100
2006-12-18 08:36:39 51°20.437 2°55.865 4.4 339 6.1 102780 100
2006-12-18 08:36:44 51°20.45 2°55.887 3.9 286 6.1 102780 100
2006-12-18 08:36:49 51°20.464 2°55.908 4 339 6.2 102790 100
2006-12-18 08:36:54 51°20.477 2°55.929 4.1 286 6.2 102790 100
2006-12-18 08:36:59 51°20.491 2°55.95 3.7 343 6.1 102780 100
2006-12-18 08:37:04 51°20.505 2°55.971 4.7 344 6.1 102780 100
2006-12-18 08:37:09 51°20.518 2°55.992 4.3 341 6.1 102790 100
2006-12-18 08:37:14 51°20.532 2°56.013 4.6 286 6.1 102790 100
2006-12-18 08:37:19 51°20.546 2°56.035 4.4 341 6.2 102790 100
2006-12-18 08:37:25 51°20.562 2°56.06 4.2 284 6.2 102790 100
2006-12-18 08:37:29 51°20.574 2°56.077 4.2 343 6.2 102790 100
2006-12-18 08:37:34 51°20.587 2°56.098 4.2 280 6.2 102790 100
2006-12-18 08:37:39 51°20.601 2°56.12 4 343 6.2 102790 100
2006-12-18 08:37:45 51°20.617 2°56.145 4 284 6.2 102790 100
2006-12-18 08:37:49 51°20.628 2°56.162 4.3 341 6.2 102790 100
2006-12-18 08:37:54 51°20.642 2°56.184 4 285 6.2 102790 100
2006-12-18 08:37:59 51°20.656 2°56.205 4 342 6.1 102790 100
2006-12-18 08:38:04 51°20.67 2°56.226 3.8 285 6.1 102790 100
2006-12-18 08:38:09 51°20.684 2°56.247 4.5 338 6.2 102780 100
2006-12-18 08:38:14 51°20.697 2°56.268 4.7 283 6.2 102780 100
2006-12-18 08:38:20 51°20.714 2°56.294 4.4 342 6.2 102790 100
2006-12-18 08:38:24 51°20.725 2°56.311 4.3 286 6.2 102790 100
2006-12-18 08:38:29 51°20.738 2°56.332 4.1 341 6.2 102790 100
2006-12-18 08:38:34 51°20.752 2°56.354 4.4 284 6.2 102790 100
2006-12-18 08:38:39 51°20.766 2°56.375 4.3 341 6.2 102780 100
2006-12-18 08:38:44 51°20.779 2°56.397 4.2 278 6.2 102780 100
2006-12-18 08:38:49 51°20.793 2°56.418 4.2 343 6.2 102790 100
2006-12-18 08:38:54 51°20.807 2°56.439 4.2 284 6.2 102790 100
2006-12-18 08:38:59 51°20.82 2°56.46 4.3 343 6.3 102780 100
2006-12-18 08:39:04 51°20.834 2°56.481 4.3 280 6.3 102780 100
2006-12-18 08:39:09 51°20.848 2°56.502 4.6 336 6.3 102790 100
2006-12-18 08:39:14 51°20.862 2°56.523 4 284 6.3 102790 100
2006-12-18 08:39:19 51°20.875 2°56.544 4.2 339 6.3 102780 100
2006-12-18 08:39:24 51°20.888 2°56.566 4.6 279 6.3 102780 100
2006-12-18 08:39:29 51°20.902 2°56.587 4.6 339 6.3 102780 100
2006-12-18 08:39:34 51°20.916 2°56.608 4.5 280 6.3 102780 100
2006-12-18 08:39:39 51°20.93 2°56.629 4.4 341 6.3 102800 100
2006-12-18 08:39:44 51°20.943 2°56.651 4.6 284 6.3 102800 100
2006-12-18 08:39:49 51°20.957 2°56.672 4.9 341 6.3 102790 100
2006-12-18 08:39:54 51°20.97 2°56.694 4.7 286 6.3 102790 100
2006-12-18 08:39:59 51°20.983 2°56.716 4.7 339 6.4 102790 100
2006-12-18 08:40:05 51°20.997 2°56.745 5.1 280 6.4 102790 100
2006-12-18 08:40:09 51°21.007 2°56.764 5.1 342 6.4 102790 100
2006-12-18 08:40:14 51°21.018 2°56.789 4.9 285 6.4 102790 100
2006-12-18 08:40:19 51°21.029 2°56.814 4.6 343 6.4 102790 100
2006-12-18 08:40:24 51°21.04 2°56.84 5 281 6.4 102790 100
2006-12-18 08:40:29 51°21.05 2°56.865 5.3 346 6.4 102790 100
2006-12-18 08:40:34 51°21.06 2°56.891 5.2 279 6.4 102790 100
2006-12-18 08:40:39 51°21.071 2°56.917 4.8 342 6.4 102790 100
2006-12-18 08:40:44 51°21.081 2°56.943 5.7 286 6.4 102790 100
2006-12-18 08:40:49 51°21.091 2°56.969 5.2 344 6.4 102790 100
2006-12-18 08:40:54 51°21.102 2°56.995 4.7 285 6.4 102790 100
2006-12-18 08:40:59 51°21.112 2°57.021 5.7 342 6.4 102790 100
2006-12-18 08:41:04 51°21.123 2°57.047 4.7 281 6.4 102790 100
2006-12-18 08:41:09 51°21.133 2°57.073 4.9 345 6.4 102780 100
2006-12-18 08:41:14 51°21.143 2°57.098 5.4 344 6.4 102780 100
2006-12-18 08:41:19 51°21.154 2°57.124 5 342 6.4 102790 100
2006-12-18 08:41:24 51°21.165 2°57.15 5.2 284 6.4 102790 100
2006-12-18 08:41:29 51°21.175 2°57.176 5.6 342 6.4 102790 100
2006-12-18 08:41:34 51°21.186 2°57.201 5.3 280 6.4 102790 100
2006-12-18 08:41:39 51°21.196 2°57.227 5.5 345 6.4 102790 100
2006-12-18 08:41:44 51°21.207 2°57.253 5.2 282 6.4 102790 100
2006-12-18 08:41:49 51°21.217 2°57.279 4.9 344 6.4 102790 100
2006-12-18 08:41:54 51°21.228 2°57.305 5.4 285 6.4 102790 100
2006-12-18 08:41:59 51°21.238 2°57.331 5.4 341 6.4 102790 100
2006-12-18 08:42:04 51°21.249 2°57.357 4.9 286 6.4 102790 100
2006-12-18 08:42:09 51°21.26 2°57.382 5.3 343 6.4 102790 100
2006-12-18 08:42:14 51°21.27 2°57.408 5.2 280 6.4 102790 100
2006-12-18 08:42:19 51°21.281 2°57.434 5 344 6.4 102790 100
2006-12-18 08:42:26 51°21.296 2°57.47 5 280 6.4 102790 100
2006-12-18 08:42:29 51°21.302 2°57.486 4.9 344 6.4 102790 100
2006-12-18 08:42:34 51°21.312 2°57.512 4.6 285 6.4 102790 100
2006-12-18 08:42:39 51°21.323 2°57.538 4.8 342 6.4 102790 100
2006-12-18 08:42:44 51°21.334 2°57.563 5.3 286 6.4 102790 100
2006-12-18 08:42:49 51°21.345 2°57.589 5.5 341 6.4 102790 100
2006-12-18 08:42:54 51°21.355 2°57.615 5.1 281 6.4 102790 100
2006-12-18 08:42:59 51°21.366 2°57.641 5.7 341 6.5 102800 100
2006-12-18 08:43:04 51°21.376 2°57.667 4.5 281 6.5 102800 100
2006-12-18 08:43:10 51°21.39 2°57.698 4.9 345 6.5 102790 100
2006-12-18 08:43:14 51°21.398 2°57.718 4.7 286 6.5 102790 100
2006-12-18 08:43:19 51°21.409 2°57.744 4.9 345 6.5 102790 100
2006-12-18 08:43:24 51°21.42 2°57.77 4.6 344 6.5 102790 100
2006-12-18 08:43:29 51°21.431 2°57.795 5 344 6.5 102800 100
2006-12-18 08:43:34 51°21.442 2°57.821 5.6 282 6.5 102800 100
2006-12-18 08:43:39 51°21.453 2°57.846 5 346 6.5 102790 100
2006-12-18 08:43:44 51°21.465 2°57.87 5.3 280 6.5 102790 100
2006-12-18 08:43:49 51°21.477 2°57.895 5 347 6.5 102790 100
2006-12-18 08:43:54 51°21.488 2°57.918 5.2 281 6.5 102790 100
2006-12-18 08:43:59 51°21.498 2°57.94 4.1 347 6.5 102790 100
2006-12-18 08:44:04 51°21.508 2°57.961 3.8 349 6.5 102790 100
2006-12-18 08:44:09 51°21.518 2°57.98 3.5 351 6.5 102790 100
2006-12-18 08:44:14 51°21.527 2°57.999 3.4 352 6.5 102790 100
2006-12-18 08:44:19 51°21.535 2°58.016 3.3 351 6.5 102790 100
2006-12-18 08:44:24 51°21.543 2°58.033 2.8 351 6.5 102790 100
2006-12-18 08:44:30 51°21.552 2°58.052 2.8 354 6.5 102790 100
2006-12-18 08:44:34 51°21.558 2°58.065 3.3 360 6.5 102790 100
2006-12-18 08:44:39 51°21.566 2°58.08 2.8 357 6.5 102790 100
2006-12-18 08:44:45 51°21.575 2°58.096 2.3 4 6.5 102790 100
2006-12-18 08:44:49 51°21.581 2°58.107 2.6 355 6.5 102790 100
2006-12-18 08:44:54 51°21.588 2°58.119 2.4 1 6.5 102790 100
2006-12-18 08:44:59 51°21.595 2°58.131 2.1 3 6.5 102800 100
2006-12-18 08:45:04 51°21.603 2°58.141 1.8 4 6.5 102800 100
2006-12-18 08:45:09 51°21.61 2°58.151 1.8 7 6.5 102790 100
2006-12-18 08:45:14 51°21.617 2°58.16 1.2 21 6.5 102790 100
2006-12-18 08:45:19 51°21.623 2°58.168 1.4 19 6.6 102800 100
2006-12-18 08:45:24 51°21.63 2°58.174 1.1 28 6.6 102800 100
2006-12-18 08:45:29 51°21.636 2°58.181 1 43 6.6 102790 100
2006-12-18 08:45:34 51°21.642 2°58.185 1.1 79 6.6 102790 100
2006-12-18 08:45:39 51°21.648 2°58.19 1.1 44 6.6 102800 100
2006-12-18 08:45:44 51°21.653 2°58.194 1 -999 6.6 102800 100
2006-12-18 08:45:49 51°21.658 2°58.197 1.1 29 6.6 102800 100
2006-12-18 08:45:54 51°21.662 2°58.199 1.3 77 6.6 102800 100
2006-12-18 08:45:59 51°21.666 2°58.202 1.2 37 6.6 102800 100
2006-12-18 08:46:04 51°21.669 2°58.204 1.3 80 6.6 102800 100
2006-12-18 08:46:09 51°21.671 2°58.206 1.1 35 6.6 102800 100
2006-12-18 08:46:14 51°21.673 2°58.207 2.4 75 6.6 102800 100
2006-12-18 08:46:19 51°21.674 2°58.209 2.1 31 6.6 102800 100
2006-12-18 08:46:24 51°21.675 2°58.21 2.6 79 6.6 102800 100
2006-12-18 08:46:29 51°21.675 2°58.211 2.2 37 6.6 102800 100
2006-12-18 08:46:35 51°21.675 2°58.212 3.1 80 6.6 102800 100
2006-12-18 08:46:39 51°21.676 2°58.212 3.1 32 6.6 102790 100
2006-12-18 08:46:44 51°21.676 2°58.214 2.8 80 6.6 102790 100
2006-12-18 08:46:49 51°21.676 2°58.214 3 36 6.6 102790 100
2006-12-18 08:46:54 51°21.677 2°58.215 2.4 82 6.6 102790 100
2006-12-18 08:46:59 51°21.677 2°58.217 2.7 32 6.6 102800 100
2006-12-18 08:47:04 51°21.678 2°58.218 2.7 80 6.6 102800 100
2006-12-18 08:47:09 51°21.678 2°58.219 2.6 20 6.6 102800 100
2006-12-18 08:47:14 51°21.678 2°58.219 2.8 75 6.6 102800 100
2006-12-18 08:47:19 51°21.678 2°58.221 2.7 44 6.6 102800 100
2006-12-18 08:47:24 51°21.679 2°58.222 3 77 6.6 102800 100
2006-12-18 08:47:29 51°21.679 2°58.223 2.9 45 6.6 102800 100
2006-12-18 08:47:34 51°21.679 2°58.224 2.6 80 6.6 102800 100
2006-12-18 08:47:39 51°21.68 2°58.225 2.8 32 6.6 102790 100
2006-12-18 08:47:44 51°21.68 2°58.226 2.7 45 6.6 102790 100
2006-12-18 08:47:49 51°21.68 2°58.227 3 26 6.6 102800 100
2006-12-18 08:47:54 51°21.68 2°58.229 3 77 6.6 102800 100
2006-12-18 08:47:59 51°21.681 2°58.23 2.6 45 6.6 102790 100
2006-12-18 08:48:04 51°21.68 2°58.231 2.8 81 6.6 102790 100
2006-12-18 08:48:09 51°21.681 2°58.232 3 42 6.6 102790 100
2006-12-18 08:48:14 51°21.681 2°58.234 2.6 77 6.6 102790 100
2006-12-18 08:48:19 51°21.681 2°58.235 3.3 41 6.6 102790 100
2006-12-18 08:48:24 51°21.682 2°58.237 2.9 43 6.6 102790 100
2006-12-18 08:48:29 51°21.683 2°58.239 2.5 37 6.6 102800 100
2006-12-18 08:48:34 51°21.683 2°58.24 2.6 74 6.6 102800 100
2006-12-18 08:48:40 51°21.684 2°58.242 3 44 6.6 102800 100
2006-12-18 08:48:45 51°21.685 2°58.244 2.9 74 6.6 102800 100
2006-12-18 08:48:49 51°21.685 2°58.245 2.7 21 6.6 102800 100
2006-12-18 08:48:54 51°21.686 2°58.247 2.7 79 6.6 102800 100
2006-12-18 08:48:59 51°21.687 2°58.249 2.5 26 6.6 102800 100
2006-12-18 08:49:04 51°21.687 2°58.251 2.9 44 6.6 102800 100
2006-12-18 08:49:09 51°21.688 2°58.252 2.5 33 6.6 102800 100
2006-12-18 08:49:14 51°21.688 2°58.254 2.4 75 6.6 102800 100
2006-12-18 08:49:19 51°21.689 2°58.255 2.8 35 6.6 102800 100
2006-12-18 08:49:25 51°21.69 2°58.257 2.6 78 6.6 102800 100
2006-12-18 08:49:29 51°21.69 2°58.259 2.7 26 6.6 102800 100
2006-12-18 08:49:34 51°21.691 2°58.26 2.8 75 6.6 102800 100
2006-12-18 08:49:39 51°21.691 2°58.262 2.3 37 6.6 102800 100
2006-12-18 08:49:44 51°21.692 2°58.264 2.4 79 6.6 102800 100
2006-12-18 08:49:49 51°21.692 2°58.265 3 22 6.6 102800 100
2006-12-18 08:49:54 51°21.693 2°58.267 2.5 79 6.6 102800 100
2006-12-18 08:49:59 51°21.693 2°58.268 2.1 36 6.6 102790 100
2006-12-18 08:50:04 51°21.694 2°58.27 2.7 79 6.6 102790 100
2006-12-18 08:50:10 51°21.694 2°58.272 2.6 36 6.6 102800 100
2006-12-18 08:50:14 51°21.695 2°58.273 3.3 75 6.6 102800 100
2006-12-18 08:50:19 51°21.695 2°58.274 3 37 6.6 102800 100
2006-12-18 08:50:24 51°21.695 2°58.276 2.8 80 6.6 102800 100
2006-12-18 08:50:29 51°21.696 2°58.277 3.2 32 6.6 102790 100
2006-12-18 08:50:34 51°21.696 2°58.279 2.8 80 6.6 102790 100
2006-12-18 08:50:40 51°21.697 2°58.281 2.8 36 6.6 102800 100
2006-12-18 08:50:44 51°21.697 2°58.282 2.6 74 6.6 102800 100
2006-12-18 08:50:49 51°21.697 2°58.284 2.6 33 6.6 102800 100
2006-12-18 08:50:54 51°21.698 2°58.285 2.8 80 6.6 102800 100
2006-12-18 08:51:00 51°21.699 2°58.287 3.2 43 6.6 102790 100
2006-12-18 08:51:05 51°21.699 2°58.289 3 74 6.6 102790 100
2006-12-18 08:51:09 51°21.699 2°58.29 3 43 6.6 102800 100
2006-12-18 08:51:14 51°21.699 2°58.292 3.1 80 6.6 102800 100
2006-12-18 08:51:19 51°21.7 2°58.293 3.2 36 6.6 102800 100
2006-12-18 08:51:24 51°21.7 2°58.295 3.4 74 6.6 102800 100
2006-12-18 08:51:29 51°21.7 2°58.296 3.3 36 6.6 102800 100
2006-12-18 08:51:34 51°21.701 2°58.298 3.1 74 6.6 102800 100
2006-12-18 08:51:39 51°21.701 2°58.299 3.4 42 6.6 102800 100
2006-12-18 08:51:45 51°21.702 2°58.301 2.8 79 6.6 102800 100
2006-12-18 08:51:49 51°21.702 2°58.302 2.6 24 6.6 102800 100
2006-12-18 08:51:54 51°21.702 2°58.304 2.6 73 6.6 102800 100
2006-12-18 08:51:59 51°21.703 2°58.305 2.5 38 6.6 102800 100
2006-12-18 08:52:04 51°21.704 2°58.308 2.4 78 6.6 102800 100
2006-12-18 08:52:09 51°21.705 2°58.31 2.6 22 6.6 102800 100
2006-12-18 08:52:14 51°21.706 2°58.312 2.2 79 6.6 102800 100
2006-12-18 08:52:19 51°21.708 2°58.315 2.4 30 6.6 102790 100
2006-12-18 08:52:24 51°21.71 2°58.317 1.3 73 6.6 102790 100
2006-12-18 08:52:29 51°21.713 2°58.319 1.3 35 6.6 102800 100
2006-12-18 08:52:34 51°21.715 2°58.32 0.9 80 6.6 102800 100
2006-12-18 08:52:39 51°21.718 2°58.322 1.9 30 6.6 102800 100
2006-12-18 08:52:44 51°21.721 2°58.323 2 287 6.6 102800 100
2006-12-18 08:52:49 51°21.725 2°58.323 1.9 267 6.6 102800 100
2006-12-18 08:52:54 51°21.728 2°58.322 2 287 6.6 102800 100
2006-12-18 08:52:59 51°21.732 2°58.321 1.7 262 6.6 102800 100
2006-12-18 08:53:04 51°21.735 2°58.319 2.4 284 6.6 102800 100
2006-12-18 08:53:09 51°21.738 2°58.316 2.6 258 6.6 102800 100
2006-12-18 08:53:14 51°21.741 2°58.313 3.5 283 6.6 102800 100
2006-12-18 08:53:20 51°21.745 2°58.308 3.1 249 6.6 102800 100
2006-12-18 08:53:26 51°21.748 2°58.303 3.7 284 6.6 102800 100
2006-12-18 08:53:30 51°21.749 2°58.299 3.3 24 6.6 102800 100
2006-12-18 08:53:34 51°21.751 2°58.295 3.8 280 6.6 102800 100
2006-12-18 08:53:39 51°21.752 2°58.289 4 243 6.6 102800 100
2006-12-18 08:53:44 51°21.753 2°58.282 3.9 285 6.6 102800 100
2006-12-18 08:53:49 51°21.754 2°58.276 4.2 32 6.6 102800 100
2006-12-18 08:53:54 51°21.755 2°58.269 4.3 285 6.6 102800 100
2006-12-18 08:53:59 51°21.754 2°58.262 4.5 33 6.7 102790 100
2006-12-18 08:54:04 51°21.754 2°58.255 4.6 282 6.7 102790 100
2006-12-18 08:54:09 51°21.753 2°58.248 4.3 20 6.7 102800 100
2006-12-18 08:54:14 51°21.751 2°58.242 4.6 286 6.7 102800 100
2006-12-18 08:54:19 51°21.75 2°58.236 4.5 38 6.7 102800 100
2006-12-18 08:54:24 51°21.747 2°58.23 4.2 286 6.7 102800 100
2006-12-18 08:54:29 51°21.745 2°58.224 4.6 315 6.7 102790 100
2006-12-18 08:54:34 51°21.742 2°58.219 5 281 6.7 102790 100
2006-12-18 08:54:39 51°21.739 2°58.213 4.9 316 6.7 102790 100
2006-12-18 08:54:44 51°21.736 2°58.207 5 285 6.7 102790 100
2006-12-18 08:54:49 51°21.733 2°58.202 4.7 316 6.7 102800 100
2006-12-18 08:54:54 51°21.73 2°58.196 4.6 280 6.7 102800 100
2006-12-18 08:54:59 51°21.727 2°58.191 4.8 36 6.7 102790 100
2006-12-18 08:55:04 51°21.723 2°58.186 4.8 284 6.7 102790 100
2006-12-18 08:55:09 51°21.72 2°58.182 4.7 316 6.7 102790 99
2006-12-18 08:55:14 51°21.717 2°58.177 4.4 285 6.7 102790 99
2006-12-18 08:55:20 51°21.713 2°58.172 4.5 31 6.7 102790 99
2006-12-18 08:55:24 51°21.711 2°58.169 4.5 286 6.7 102790 99
2006-12-18 08:55:29 51°21.708 2°58.165 4.7 317 6.7 102790 99
2006-12-18 08:55:34 51°21.705 2°58.161 4.6 284 6.7 102790 99
2006-12-18 08:55:40 51°21.701 2°58.157 4.3 316 6.7 102790 99
2006-12-18 08:55:45 51°21.699 2°58.153 4.2 318 6.7 102790 99
2006-12-18 08:55:49 51°21.697 2°58.151 4.3 317 6.7 102790 99
2006-12-18 08:55:54 51°21.694 2°58.148 4.2 285 6.7 102800 99
2006-12-18 08:55:59 51°21.692 2°58.146 4.1 318 6.7 102800 99
2006-12-18 08:56:05 51°21.69 2°58.143 3.8 281 6.7 102790 99
2006-12-18 08:56:10 51°21.688 2°58.142 3.6 320 6.7 102790 99
2006-12-18 08:56:14 51°21.687 2°58.141 3 285 6.7 102800 99
2006-12-18 08:56:19 51°21.686 2°58.14 3.1 316 6.7 102800 99
2006-12-18 08:56:26 51°21.685 2°58.139 3.1 285 6.7 102790 99
2006-12-18 08:56:29 51°21.684 2°58.139 3 32 6.7 102790 99
2006-12-18 08:56:34 51°21.684 2°58.14 3.2 286 6.7 102790 99
2006-12-18 08:56:39 51°21.683 2°58.14 2.9 240 6.7 102790 99
2006-12-18 08:56:44 51°21.683 2°58.14 3.3 24 6.7 102800 99
2006-12-18 08:56:51 51°21.682 2°58.141 3.4 237 6.7 102800 99
2006-12-18 08:56:54 51°21.682 2°58.141 3.6 285 6.7 102800 99
2006-12-18 08:57:00 51°21.681 2°58.142 3.4 235 6.7 102800 99
2006-12-18 08:57:04 51°21.681 2°58.142 3.5 282 6.7 102800 99
2006-12-18 08:57:09 51°21.68 2°58.143 3.5 29 6.7 102800 99
2006-12-18 08:57:14 51°21.68 2°58.143 3 287 6.7 102800 99
2006-12-18 08:57:19 51°21.679 2°58.144 3.5 30 6.7 102800 99
2006-12-18 08:57:24 51°21.679 2°58.144 3.1 282 6.7 102800 99
2006-12-18 08:57:29 51°21.679 2°58.145 3.1 235 6.7 102800 99
2006-12-18 08:57:34 51°21.678 2°58.145 3 281 6.8 102800 99
2006-12-18 08:57:39 51°21.678 2°58.145 3.2 33 6.8 102800 99
2006-12-18 08:57:44 51°21.678 2°58.146 2.9 27 6.8 102800 99
2006-12-18 08:57:49 51°21.677 2°58.146 2.8 38 6.8 102800 99
2006-12-18 08:57:54 51°21.677 2°58.146 3.1 285 6.8 102800 99
2006-12-18 08:58:00 51°21.676 2°58.147 3.4 234 6.8 102800 99
2006-12-18 08:58:05 51°21.676 2°58.147 3.6 284 6.8 102810 99
2006-12-18 08:58:09 51°21.676 2°58.148 3.2 34 6.8 102810 99
2006-12-18 08:58:14 51°21.675 2°58.148 3.2 283 6.8 102800 99
2006-12-18 08:58:19 51°21.675 2°58.148 3 237 6.8 102800 99
2006-12-18 08:58:25 51°21.674 2°58.149 3.5 287 6.8 102800 99
2006-12-18 08:58:30 51°21.674 2°58.149 3.1 31 6.8 102800 99
2006-12-18 08:58:34 51°21.674 2°58.149 3.8 286 6.8 102800 99
2006-12-18 08:58:39 51°21.673 2°58.15 3.7 237 6.8 102800 99
2006-12-18 08:58:44 51°21.673 2°58.15 3.7 24 6.8 102800 99
2006-12-18 08:58:49 51°21.673 2°58.15 3.5 237 6.8 102810 99
2006-12-18 08:58:55 51°21.672 2°58.151 3.3 287 6.8 102810 99
2006-12-18 08:58:59 51°21.672 2°58.151 3.3 239 6.8 102810 99
2006-12-18 08:59:04 51°21.672 2°58.151 2.9 282 6.8 102800 99
2006-12-18 08:59:09 51°21.671 2°58.152 3.5 237 6.8 102800 99
2006-12-18 08:59:14 51°21.671 2°58.152 3.4 284 6.8 102800 99
2006-12-18 08:59:20 51°21.671 2°58.152 3.6 241 6.8 102800 99
2006-12-18 08:59:24 51°21.671 2°58.153 3.6 286 6.8 102800 99
2006-12-18 08:59:29 51°21.671 2°58.153 3.7 241 6.8 102800 99
2006-12-18 08:59:34 51°21.67 2°58.154 2.9 286 6.8 102800 99
2006-12-18 08:59:40 51°21.67 2°58.154 3.1 244 6.8 102800 99
2006-12-18 08:59:45 51°21.67 2°58.154 3.1 27 6.8 102800 99
2006-12-18 08:59:49 51°21.669 2°58.155 3 246 6.8 102800 99
2006-12-18 08:59:54 51°21.669 2°58.155 3.9 279 6.8 102800 99
2006-12-18 08:59:59 51°21.669 2°58.155 3.4 242 6.8 102800 99
2006-12-18 09:00:04 51°21.669 2°58.156 3.4 280 6.8 102810 99
2006-12-18 09:00:10 51°21.669 2°58.156 4.3 246 6.8 102810 99
2006-12-18 09:00:14 51°21.669 2°58.157 4 280 6.8 102800 99
2006-12-18 09:00:19 51°21.669 2°58.157 4.6 251 6.8 102800 99
2006-12-18 09:00:24 51°21.669 2°58.157 3.6 285 6.8 102800 99
2006-12-18 09:00:29 51°21.669 2°58.158 3.4 250 6.8 102800 99
2006-12-18 09:00:34 51°21.669 2°58.158 3.8 280 6.8 102810 99
2006-12-18 09:00:39 51°21.669 2°58.158 3.9 248 6.8 102810 99
2006-12-18 09:00:45 51°21.669 2°58.159 4.1 -999 6.8 102800 99
2006-12-18 09:00:50 51°21.668 2°58.159 2.7 248 6.8 102800 99
2006-12-18 09:00:54 51°21.668 2°58.159 3.5 280 6.8 102810 99
2006-12-18 09:01:00 51°21.668 2°58.16 3.3 249 6.8 102810 99
2006-12-18 09:01:04 51°21.668 2°58.16 3.7 282 6.8 102800 99
2006-12-18 09:01:09 51°21.668 2°58.161 3.5 255 6.8 102810 99
2006-12-18 09:01:14 51°21.668 2°58.161 3.8 281 6.8 102810 99
2006-12-18 09:01:19 51°21.668 2°58.161 3.9 253 6.8 102810 99
2006-12-18 09:01:24 51°21.668 2°58.162 3.7 281 6.8 102800 99
2006-12-18 09:01:29 51°21.668 2°58.162 4.2 251 6.8 102810 99
2006-12-18 09:01:34 51°21.668 2°58.163 4.3 286 6.8 102810 99
2006-12-18 09:01:40 51°21.668 2°58.163 3.9 252 6.8 102810 99
2006-12-18 09:01:45 51°21.668 2°58.164 3.8 255 6.8 102800 99
2006-12-18 09:01:49 51°21.668 2°58.164 4 258 6.8 102800 99
2006-12-18 09:01:54 51°21.668 2°58.164 4.7 281 6.8 102800 99
2006-12-18 09:02:00 51°21.668 2°58.165 3.8 255 6.8 102800 99
2006-12-18 09:02:05 51°21.668 2°58.166 3.9 281 6.8 102800 99
2006-12-18 09:02:09 51°21.668 2°58.166 4.3 254 6.8 102800 99
2006-12-18 09:02:14 51°21.668 2°58.167 4.3 280 6.8 102800 99
2006-12-18 09:02:20 51°21.668 2°58.167 4 257 6.8 102800 99
2006-12-18 09:02:24 51°21.668 2°58.168 4.3 282 6.8 102810 99
2006-12-18 09:02:29 51°21.668 2°58.168 3.8 259 6.9 102810 99
2006-12-18 09:02:34 51°21.668 2°58.168 3.8 286 6.9 102810 99
2006-12-18 09:02:40 51°21.669 2°58.169 3.9 257 6.9 102810 99
2006-12-18 09:02:45 51°21.669 2°58.17 4.5 256 6.9 102800 99
2006-12-18 09:02:49 51°21.669 2°58.17 5.1 257 6.9 102800 99
2006-12-18 09:02:55 51°21.669 2°58.171 5.2 285 6.9 102800 99
2006-12-18 09:02:59 51°21.669 2°58.171 4.9 256 6.9 102800 99
2006-12-18 09:03:05 51°21.669 2°58.172 4.3 286 6.9 102810 99
2006-12-18 09:03:10 51°21.669 2°58.173 3.6 260 6.9 102810 99
2006-12-18 09:03:14 51°21.669 2°58.173 4.5 281 6.9 102810 98
2006-12-18 09:03:20 51°21.669 2°58.174 3.9 260 6.9 102810 98
2006-12-18 09:03:24 51°21.67 2°58.175 3.5 282 6.9 102800 98
2006-12-18 09:03:30 51°21.67 2°58.175 3.9 260 6.9 102800 98
2006-12-18 09:03:34 51°21.67 2°58.176 5.3 284 6.9 102810 98
2006-12-18 09:03:39 51°21.67 2°58.177 4.5 256 6.9 102810 98
2006-12-18 09:03:44 51°21.67 2°58.177 3.9 286 6.9 102800 98
2006-12-18 09:03:50 51°21.671 2°58.178 4.5 257 6.9 102810 98
2006-12-18 09:03:54 51°21.671 2°58.179 4.5 282 6.9 102810 98
2006-12-18 09:03:59 51°21.671 2°58.179 3.6 257 6.9 102810 98
2006-12-18 09:04:04 51°21.671 2°58.18 4.8 280 6.9 102790 98
2006-12-18 09:04:09 51°21.671 2°58.181 5.1 256 6.9 102790 98
2006-12-18 09:04:15 51°21.671 2°58.182 4.2 285 6.9 102810 98
2006-12-18 09:04:20 51°21.672 2°58.183 5.1 256 6.9 102810 98
2006-12-18 09:04:25 51°21.672 2°58.184 4.6 281 6.8 102810 98
2006-12-18 09:04:29 51°21.672 2°58.184 4.3 258 6.8 102810 98
2006-12-18 09:04:34 51°21.672 2°58.185 4.3 280 6.9 102800 98
2006-12-18 09:04:39 51°21.672 2°58.185 3.4 260 6.8 102800 98
2006-12-18 09:04:44 51°21.672 2°58.186 3.8 -999 6.8 102800 98
2006-12-18 09:04:49 51°21.672 2°58.187 3.8 262 6.8 102800 98
2006-12-18 09:04:54 51°21.672 2°58.188 3.7 282 6.8 102800 98
2006-12-18 09:04:59 51°21.672 2°58.189 4.3 259 6.8 102800 98
2006-12-18 09:05:06 51°21.673 2°58.19 3.6 282 6.8 102800 98
2006-12-18 09:05:09 51°21.673 2°58.191 3.6 262 6.8 102800 98
2006-12-18 09:05:14 51°21.673 2°58.192 3.5 281 6.8 102810 98
2006-12-18 09:05:19 51°21.673 2°58.193 3.6 260 6.8 102810 98
2006-12-18 09:05:25 51°21.673 2°58.194 3.7 280 6.8 102810 98
2006-12-18 09:05:30 51°21.674 2°58.195 3.9 259 6.8 102810 98
2006-12-18 09:05:34 51°21.674 2°58.195 2.5 286 6.8 102810 98
2006-12-18 09:05:40 51°21.674 2°58.196 3.5 262 6.8 102810 98
2006-12-18 09:05:45 51°21.674 2°58.197 3.7 -999 6.8 102810 98
2006-12-18 09:05:50 51°21.674 2°58.198 3.6 259 6.8 102810 98
2006-12-18 09:05:54 51°21.675 2°58.199 3.9 284 6.8 102810 98
2006-12-18 09:05:59 51°21.675 2°58.2 3.2 257 6.8 102810 98
2006-12-18 09:06:04 51°21.675 2°58.201 3.6 283 6.8 102810 98
2006-12-18 09:06:09 51°21.675 2°58.202 3.8 259 6.8 102810 98
2006-12-18 09:06:14 51°21.675 2°58.203 2.7 284 6.8 102810 98
2006-12-18 09:06:20 51°21.676 2°58.205 3.9 257 6.8 102810 98
2006-12-18 09:06:24 51°21.676 2°58.205 3.5 282 6.8 102810 98
2006-12-18 09:06:29 51°21.676 2°58.206 3.6 258 6.8 102810 98
2006-12-18 09:06:34 51°21.676 2°58.207 3.4 286 6.8 102800 98
2006-12-18 09:06:40 51°21.676 2°58.208 4.4 257 6.8 102800 98
2006-12-18 09:06:45 51°21.676 2°58.209 3.2 260 6.8 102810 98
2006-12-18 09:06:49 51°21.676 2°58.21 4.6 256 6.8 102810 98
2006-12-18 09:06:54 51°21.676 2°58.211 4.1 284 6.8 102810 98
2006-12-18 09:06:59 51°21.676 2°58.212 3.5 259 6.8 102810 98
2006-12-18 09:07:04 51°21.677 2°58.213 3.9 280 6.8 102810 98
2006-12-18 09:07:11 51°21.678 2°58.215 4.2 258 6.8 102810 98
2006-12-18 09:07:14 51°21.678 2°58.215 4 285 6.8 102800 98
2006-12-18 09:07:19 51°21.678 2°58.216 4.2 257 6.8 102810 98
2006-12-18 09:07:25 51°21.678 2°58.218 3.8 280 6.8 102810 98
2006-12-18 09:07:30 51°21.678 2°58.219 3.4 259 6.8 102810 98
2006-12-18 09:07:34 51°21.678 2°58.219 4.2 286 6.9 102800 98
2006-12-18 09:07:39 51°21.679 2°58.221 4 259 6.9 102800 98
2006-12-18 09:07:44 51°21.679 2°58.221 3.9 -999 6.9 102810 98
2006-12-18 09:07:50 51°21.679 2°58.223 4 260 6.9 102810 98
2006-12-18 09:07:54 51°21.68 2°58.224 4.3 283 6.9 102800 98
2006-12-18 09:08:00 51°21.68 2°58.225 3.5 261 6.9 102800 98
2006-12-18 09:08:04 51°21.68 2°58.226 4 280 6.9 102810 98
2006-12-18 09:08:10 51°21.68 2°58.227 3.7 259 6.9 102810 98
2006-12-18 09:08:14 51°21.681 2°58.228 3.1 286 6.9 102810 98
2006-12-18 09:08:19 51°21.681 2°58.229 3 261 6.9 102810 98
2006-12-18 09:08:24 51°21.681 2°58.23 3.3 282 6.9 102800 98
2006-12-18 09:08:29 51°21.681 2°58.23 3.4 257 6.9 102800 98
2006-12-18 09:08:34 51°21.682 2°58.23 3.7 284 6.9 102810 98
2006-12-18 09:08:40 51°21.683 2°58.23 3.5 252 6.9 102810 98
2006-12-18 09:08:44 51°21.683 2°58.229 3.8 282 6.9 102800 98
2006-12-18 09:08:49 51°21.684 2°58.228 3.5 250 6.9 102800 98
2006-12-18 09:08:54 51°21.684 2°58.226 3.3 284 6.9 102800 98
2006-12-18 09:09:00 51°21.686 2°58.223 3.7 251 6.9 102800 98
2006-12-18 09:09:05 51°21.687 2°58.221 4.1 286 6.9 102800 98
2006-12-18 09:09:09 51°21.687 2°58.218 3.9 249 6.9 102800 98
2006-12-18 09:09:15 51°21.688 2°58.214 4.1 286 6.9 102800 98
2006-12-18 09:09:20 51°21.689 2°58.209 3.9 246 6.9 102800 98
2006-12-18 09:09:25 51°21.69 2°58.205 4.2 280 6.9 102800 98
2006-12-18 09:09:30 51°21.69 2°58.2 4.2 243 6.9 102800 98
2006-12-18 09:09:34 51°21.691 2°58.196 4.1 285 6.9 102800 98
2006-12-18 09:09:39 51°21.691 2°58.19 4.3 240 6.9 102800 98
2006-12-18 09:09:45 51°21.692 2°58.184 4.6 287 6.9 102800 98
2006-12-18 09:09:49 51°21.692 2°58.18 4.2 241 6.9 102800 98
2006-12-18 09:09:54 51°21.691 2°58.175 3.9 280 6.9 102800 98
2006-12-18 09:09:59 51°21.691 2°58.17 3.8 242 6.9 102800 98
2006-12-18 09:10:05 51°21.691 2°58.165 4.3 281 6.9 102800 98
2006-12-18 09:10:10 51°21.691 2°58.16 4.2 236 6.9 102800 98
2006-12-18 09:10:14 51°21.691 2°58.157 4.4 282 6.9 102800 98
2006-12-18 09:10:20 51°21.691 2°58.152 4.3 240 6.9 102800 98
2006-12-18 09:10:24 51°21.691 2°58.15 4.2 280 6.9 102810 98
2006-12-18 09:10:30 51°21.691 2°58.146 4.4 241 6.9 102810 98
2006-12-18 09:10:34 51°21.69 2°58.143 4.2 287 6.9 102800 98
2006-12-18 09:10:39 51°21.69 2°58.141 3.7 247 6.9 102800 98
2006-12-18 09:10:44 51°21.691 2°58.139 3.9 -999 6.9 102800 98
2006-12-18 09:10:50 51°21.691 2°58.137 3.4 246 6.9 102800 98
2006-12-18 09:10:54 51°21.691 2°58.136 3.6 280 6.9 102800 98
2006-12-18 09:10:59 51°21.691 2°58.135 4 248 6.9 102800 98
2006-12-18 09:11:04 51°21.692 2°58.134 4.2 282 6.9 102800 98
2006-12-18 09:11:09 51°21.692 2°58.133 3.9 250 6.9 102800 97
2006-12-18 09:11:14 51°21.692 2°58.131 3.9 281 6.9 102800 97
2006-12-18 09:11:20 51°21.692 2°58.131 4 251 6.9 102800 97
2006-12-18 09:11:25 51°21.693 2°58.13 3.7 286 6.9 102800 97
2006-12-18 09:11:29 51°21.693 2°58.129 4 251 6.9 102800 97
2006-12-18 09:11:34 51°21.694 2°58.128 3.6 287 6.9 102790 97
2006-12-18 09:11:40 51°21.695 2°58.128 4.4 252 6.9 102810 97
2006-12-18 09:11:45 51°21.695 2°58.127 3.9 252 6.9 102810 97
2006-12-18 09:11:50 51°21.696 2°58.127 4 257 6.9 102810 97
2006-12-18 09:11:54 51°21.696 2°58.126 4.4 281 6.9 102800 97
2006-12-18 09:12:00 51°21.697 2°58.126 3.7 257 6.9 102800 97
2006-12-18 09:12:04 51°21.697 2°58.125 3.7 286 6.9 102810 97
2006-12-18 09:12:09 51°21.698 2°58.125 4 257 6.9 102800 97
2006-12-18 09:12:14 51°21.699 2°58.125 4 279 6.9 102800 97
2006-12-18 09:12:20 51°21.7 2°58.124 4 257 6.9 102800 97
2006-12-18 09:12:26 51°21.701 2°58.124 3.2 281 6.9 102800 97
2006-12-18 09:12:30 51°21.701 2°58.124 3.5 259 6.9 102810 97
2006-12-18 09:12:35 51°21.702 2°58.124 2.9 280 6.9 102810 97
2006-12-18 09:12:41 51°21.703 2°58.124 2.7 262 6.9 102810 97
2006-12-18 09:12:45 51°21.703 2°58.124 3.8 259 6.9 102800 97
2006-12-18 09:12:51 51°21.704 2°58.124 3.3 262 6.9 102800 97
2006-12-18 09:12:55 51°21.705 2°58.124 2.4 282 6.9 102800 97
2006-12-18 09:13:01 51°21.706 2°58.124 2.7 265 6.9 102800 97
2006-12-18 09:13:06 51°21.707 2°58.124 2.1 282 6.9 102810 97
2006-12-18 09:13:09 51°21.707 2°58.124 2.7 264 6.9 102810 97